createdAt,value
2022-10-04T00:02:29.154Z,3.90
2022-10-04T00:05:24.953Z,2.50
2022-10-04T00:08:27.556Z,5.90
2022-10-04T00:11:23.762Z,5.10
2022-10-04T00:14:20.940Z,2.40
2022-10-04T00:17:20.062Z,3.70
2022-10-04T00:20:51.084Z,3.70
2022-10-04T00:23:47.598Z,4.60
2022-10-04T00:27:11.460Z,3.70
2022-10-04T00:30:24.799Z,4.60
2022-10-04T00:33:38.793Z,2.40
2022-10-04T00:36:51.866Z,4.60
2022-10-04T00:39:45.767Z,4.60
2022-10-04T00:42:54.607Z,3.70
2022-10-04T00:45:48.275Z,4.20
2022-10-04T00:48:46.386Z,3.20
2022-10-04T00:51:43.326Z,4.20
2022-10-04T00:54:41.862Z,3.80
2022-10-04T00:57:36.764Z,4.50
2022-10-04T01:00:26.950Z,6.10
2022-10-04T01:03:22.599Z,4.20
2022-10-04T01:06:14.234Z,4.40
2022-10-04T01:09:12.372Z,3.80
2022-10-04T01:12:08.261Z,2.50
2022-10-04T01:15:06.243Z,4.30
2022-10-04T01:18:18.072Z,3.40
2022-10-04T01:21:23.615Z,2.10
2022-10-04T01:24:24.574Z,1.60
2022-10-04T01:27:36.976Z,1.90
2022-10-04T01:30:27.519Z,2.70
2022-10-04T01:33:17.606Z,3.50
2022-10-04T01:36:08.055Z,3.60
2022-10-04T01:38:58.517Z,3.10
2022-10-04T01:41:54.036Z,3.80
2022-10-04T01:44:49.272Z,3.90
2022-10-04T01:47:43.478Z,2.40
2022-10-04T01:50:37.116Z,4.40
2022-10-04T01:53:30.584Z,3.20
2022-10-04T01:56:24.962Z,2.90
2022-10-04T01:59:22.214Z,3.30
2022-10-04T02:02:19.216Z,3.00
2022-10-04T02:05:13.980Z,2.90
2022-10-04T02:08:08.930Z,3.00
2022-10-04T02:11:01.097Z,3.70
2022-10-04T02:13:54.616Z,3.90
2022-10-04T02:16:47.320Z,4.80
2022-10-04T02:19:40.730Z,3.10
2022-10-04T02:22:31.344Z,2.80
2022-10-04T02:25:22.787Z,4.70
2022-10-04T02:28:19.423Z,3.50
2022-10-04T02:31:28.952Z,3.10
2022-10-04T02:34:20.668Z,2.10
2022-10-04T02:37:12.447Z,3.40
2022-10-04T02:40:10.714Z,3.40
2022-10-04T02:43:05.190Z,3.70
2022-10-04T02:46:01.396Z,2.70
2022-10-04T02:48:58.815Z,1.80
2022-10-04T02:51:54.546Z,2.70
2022-10-04T02:54:50.030Z,3.70
2022-10-04T02:57:42.361Z,2.80
2022-10-04T03:00:34.235Z,2.80
2022-10-04T03:03:29.238Z,3.10
2022-10-04T03:06:23.169Z,3.20
2022-10-04T03:09:14.128Z,5.20
2022-10-04T03:12:05.772Z,3.00
2022-10-04T03:14:57.434Z,2.90
2022-10-04T03:17:47.728Z,2.00
2022-10-04T03:20:41.959Z,3.60
2022-10-04T03:23:33.722Z,2.50
2022-10-04T03:26:31.906Z,2.10
2022-10-04T03:29:23.987Z,1.70
2022-10-04T03:32:16.883Z,2.90
2022-10-04T03:35:19.065Z,4.20
2022-10-04T03:38:13.133Z,4.60
2022-10-04T03:41:05.061Z,2.70
2022-10-04T03:44:00.410Z,3.90
2022-10-04T03:46:54.014Z,2.20
2022-10-04T03:49:50.519Z,4.40
2022-10-04T03:52:50.811Z,2.70
2022-10-04T03:55:45.875Z,4.70
2022-10-04T03:58:37.035Z,4.20
2022-10-04T04:01:42.402Z,5.10
2022-10-04T04:04:43.822Z,2.90
2022-10-04T04:07:40.625Z,3.40
2022-10-04T04:10:32.956Z,1.80
2022-10-04T04:13:28.878Z,2.10
2022-10-04T04:16:20.963Z,3.40
2022-10-04T04:19:17.118Z,2.40
2022-10-04T04:22:07.190Z,3.30
2022-10-04T04:24:58.441Z,2.90
2022-10-04T04:27:50.545Z,2.10
2022-10-04T04:30:46.047Z,1.70
2022-10-04T04:33:43.216Z,2.70
2022-10-04T04:36:40.696Z,3.00
2022-10-04T04:39:43.140Z,1.70
2022-10-04T04:42:35.530Z,5.20
2022-10-04T04:45:29.823Z,2.50
2022-10-04T04:48:22.772Z,2.80
2022-10-04T04:51:22.552Z,2.30
2022-10-04T04:54:14.642Z,3.10
2022-10-04T04:57:05.769Z,3.00
2022-10-04T04:59:59.464Z,3.30
2022-10-04T05:02:58.835Z,4.00
2022-10-04T05:05:50.898Z,2.00
2022-10-04T05:08:50.698Z,1.90
2022-10-04T05:11:41.859Z,2.20
2022-10-04T05:14:32.519Z,2.50
2022-10-04T05:17:25.770Z,2.60
2022-10-04T05:20:17.862Z,3.70
2022-10-04T05:23:12.583Z,3.00
2022-10-04T05:26:04.705Z,4.30
2022-10-04T05:28:54.783Z,3.00
2022-10-04T05:31:50.171Z,3.30
2022-10-04T05:34:43.358Z,3.40
2022-10-04T05:37:46.647Z,4.60
2022-10-04T05:40:49.422Z,4.40
2022-10-04T05:43:47.141Z,4.10
2022-10-04T05:46:40.824Z,3.40
2022-10-04T05:49:43.954Z,2.60
2022-10-04T05:52:37.163Z,3.70
2022-10-04T05:55:37.036Z,3.00
2022-10-04T05:58:50.537Z,5.30
2022-10-04T06:01:49.904Z,3.90
2022-10-04T06:04:56.485Z,4.80
2022-10-04T06:07:54.669Z,4.40
2022-10-04T06:10:57.670Z,5.00
2022-10-04T06:14:13.921Z,4.00
2022-10-04T06:17:30.876Z,4.70
2022-10-04T06:21:01.372Z,3.40
2022-10-04T06:23:57.987Z,5.40
2022-10-04T06:26:53.904Z,5.90
2022-10-04T06:29:48.264Z,4.80
2022-10-04T06:32:55.451Z,7.40
2022-10-04T06:36:15.522Z,6.20
2022-10-04T06:39:43.925Z,6.00
2022-10-04T06:43:14.939Z,5.70
2022-10-04T06:46:13.111Z,6.30
2022-10-04T06:49:25.205Z,8.50
2022-10-04T06:52:40.844Z,4.50
2022-10-04T06:56:05.885Z,3.70
2022-10-04T06:59:18.765Z,8.70
2022-10-04T07:02:15.085Z,7.10
2022-10-04T07:05:13.639Z,7.80
2022-10-04T07:08:13.668Z,7.60
2022-10-04T07:11:13.800Z,8.60
2022-10-04T07:14:13.384Z,8.00
2022-10-04T07:17:10.232Z,5.30
2022-10-04T07:20:02.605Z,3.90
2022-10-04T07:22:57.593Z,6.50
2022-10-04T07:25:52.048Z,9.60
2022-10-04T07:29:04.269Z,7.90
2022-10-04T07:32:08.938Z,6.80
2022-10-04T07:35:06.951Z,6.20
2022-10-04T07:38:06.048Z,7.70
2022-10-04T07:41:07.590Z,6.70
2022-10-04T07:44:02.659Z,5.60
2022-10-04T07:46:56.861Z,6.40
2022-10-04T07:49:48.717Z,6.40
2022-10-04T07:52:52.834Z,5.00
2022-10-04T07:55:51.382Z,5.20
2022-10-04T07:58:50.532Z,5.30
2022-10-04T08:01:47.241Z,4.50
2022-10-04T08:04:49.552Z,5.40
2022-10-04T08:07:54.949Z,6.50
2022-10-04T08:10:57.496Z,9.10
2022-10-04T08:13:58.479Z,9.10
2022-10-04T08:17:01.275Z,9.60
2022-10-04T08:19:59.916Z,11.30
2022-10-04T08:23:00.877Z,8.90
2022-10-04T08:26:02.616Z,9.30
2022-10-04T08:29:17.759Z,10.70
2022-10-04T08:32:12.623Z,12.90
2022-10-04T08:35:29.725Z,12.50
2022-10-04T08:38:32.708Z,10.70
2022-10-04T08:41:58.796Z,9.20
2022-10-04T08:45:38.331Z,11.50
2022-10-04T08:49:02.985Z,16.00
2022-10-04T08:52:20.003Z,12.10
2022-10-04T08:55:55.312Z,11.90
2022-10-04T08:59:13.902Z,10.10
2022-10-04T09:02:33.581Z,7.70
2022-10-04T09:05:38.098Z,7.70
2022-10-04T09:09:16.312Z,5.90
2022-10-04T09:12:20.300Z,6.80
2022-10-04T09:15:31.072Z,5.80
2022-10-04T09:18:44.776Z,5.40
2022-10-04T09:21:52.005Z,5.00
2022-10-04T09:25:19.276Z,4.30
2022-10-04T09:28:22.497Z,4.10
2022-10-04T09:31:34.883Z,6.80
2022-10-04T09:34:41.984Z,4.60
2022-10-04T09:37:56.407Z,5.40
2022-10-04T09:41:15.916Z,5.20
2022-10-04T09:44:36.309Z,5.80
2022-10-04T09:47:45.878Z,6.00
2022-10-04T09:51:08.237Z,4.60
2022-10-04T09:54:08.456Z,4.00
2022-10-04T09:57:28.066Z,6.20
2022-10-04T10:00:25.793Z,3.90
2022-10-04T10:03:42.403Z,5.60
2022-10-04T10:06:56.880Z,6.20
2022-10-04T10:10:18.119Z,6.00
2022-10-04T10:13:43.924Z,5.30
2022-10-04T10:17:05.114Z,7.10
2022-10-04T10:20:35.023Z,6.20
2022-10-04T10:23:39.155Z,6.80
2022-10-04T10:26:42.995Z,4.70
2022-10-04T10:29:53.037Z,5.70
2022-10-04T10:33:12.705Z,5.30
2022-10-04T10:36:31.896Z,4.00
2022-10-04T10:39:38.315Z,5.70
2022-10-04T10:42:51.347Z,7.70
2022-10-04T10:45:59.176Z,5.20
2022-10-04T10:49:07.562Z,3.70
2022-10-04T10:52:40.683Z,4.20
2022-10-04T10:55:49.240Z,8.00
2022-10-04T10:59:14.757Z,7.50
2022-10-04T11:02:49.551Z,6.20
2022-10-04T11:06:07.438Z,8.20
2022-10-04T11:09:29.285Z,7.50
2022-10-04T11:12:51.529Z,8.40
2022-10-04T11:16:06.013Z,6.80
2022-10-04T11:19:35.477Z,6.10
2022-10-04T11:23:02.113Z,8.30
2022-10-04T11:26:29.978Z,8.40
2022-10-04T11:29:35.440Z,4.70
2022-10-04T11:32:59.551Z,8.10
2022-10-04T11:36:08.745Z,4.80
2022-10-04T11:39:31.560Z,7.50
2022-10-04T11:42:32.080Z,6.00
2022-10-04T11:45:39.221Z,10.20
2022-10-04T11:48:40.434Z,5.10
2022-10-04T11:52:02.022Z,7.50
2022-10-04T11:55:20.522Z,3.70
2022-10-04T11:58:19.712Z,5.70
2022-10-04T12:01:42.410Z,4.80
2022-10-04T12:05:19.129Z,5.80
2022-10-04T12:08:24.922Z,7.40
2022-10-04T12:11:56.417Z,5.50
2022-10-04T12:15:01.635Z,4.60
2022-10-04T12:18:19.967Z,5.30
2022-10-04T12:21:51.856Z,6.30
2022-10-04T12:25:09.265Z,5.70
2022-10-04T12:28:34.978Z,5.20
2022-10-04T12:31:29.711Z,6.60
2022-10-04T12:34:29.216Z,8.30
2022-10-04T12:37:29.488Z,7.10
2022-10-04T12:40:43.570Z,7.40
2022-10-04T12:43:44.512Z,6.70
2022-10-04T12:46:53.317Z,6.90
2022-10-04T12:49:52.593Z,10.50
2022-10-04T12:52:55.334Z,7.50
2022-10-04T12:56:05.758Z,7.30
2022-10-04T12:59:20.176Z,6.90
2022-10-04T13:02:25.851Z,5.30
2022-10-04T13:05:23.945Z,5.70
2022-10-04T13:08:33.587Z,5.20
2022-10-04T13:11:53.348Z,5.60
2022-10-04T13:14:51.484Z,5.60
2022-10-04T13:17:50.680Z,8.30
2022-10-04T13:20:51.640Z,5.70
2022-10-04T13:23:56.234Z,3.90
2022-10-04T13:26:56.185Z,7.70
2022-10-04T13:29:56.909Z,8.10
2022-10-04T13:32:54.135Z,5.90
2022-10-04T13:35:52.823Z,5.90
2022-10-04T13:39:09.755Z,5.90
2022-10-04T13:42:32.485Z,5.30
2022-10-04T13:45:41.759Z,6.70
2022-10-04T13:48:41.064Z,6.00
2022-10-04T13:52:12.271Z,5.70
2022-10-04T13:55:39.326Z,3.50
2022-10-04T13:58:46.720Z,5.30
2022-10-04T14:02:10.469Z,5.10
2022-10-04T14:05:31.531Z,6.50
2022-10-04T14:08:52.518Z,6.80
2022-10-04T14:12:10.344Z,6.80
2022-10-04T14:15:47.755Z,5.60
2022-10-04T14:19:10.429Z,6.80
2022-10-04T14:22:36.753Z,8.50
2022-10-04T14:25:51.433Z,4.50
2022-10-04T14:29:11.929Z,6.10
2022-10-04T14:32:29.747Z,8.70
2022-10-04T14:35:25.448Z,8.90
2022-10-04T14:38:47.808Z,7.50
2022-10-04T14:42:09.312Z,8.30
2022-10-04T14:45:22.259Z,10.00
2022-10-04T14:48:40.412Z,6.90
2022-10-04T14:51:51.982Z,7.00
2022-10-04T14:54:52.863Z,9.10
2022-10-04T14:58:00.379Z,5.50
2022-10-04T15:01:08.978Z,8.60
2022-10-04T15:04:18.333Z,5.90
2022-10-04T15:07:19.994Z,7.30
2022-10-04T15:10:19.445Z,5.90
2022-10-04T15:13:21.615Z,7.20
2022-10-04T15:16:21.874Z,6.40
2022-10-04T15:19:26.465Z,5.80
2022-10-04T15:22:23.310Z,8.80
2022-10-04T15:25:40.605Z,6.90
2022-10-04T15:29:02.545Z,9.10
2022-10-04T15:32:05.605Z,5.80
2022-10-04T15:35:15.723Z,6.80
2022-10-04T15:38:18.598Z,7.70
2022-10-04T15:41:17.857Z,7.70
2022-10-04T15:44:42.722Z,10.00
2022-10-04T15:47:40.635Z,7.00
2022-10-04T15:50:33.987Z,6.70
2022-10-04T15:53:44.956Z,8.40
2022-10-04T15:56:49.902Z,10.00
2022-10-04T15:59:53.705Z,6.60
2022-10-04T16:03:14.615Z,8.70
2022-10-04T16:06:11.458Z,6.90
2022-10-04T16:09:25.160Z,6.90
2022-10-04T16:12:29.262Z,6.60
2022-10-04T16:15:31.847Z,6.20
2022-10-04T16:18:51.308Z,6.60
2022-10-04T16:21:52.157Z,6.50
2022-10-04T16:24:51.540Z,10.20
2022-10-04T16:27:57.630Z,7.50
2022-10-04T16:31:11.321Z,7.30
2022-10-04T16:34:15.876Z,8.30
2022-10-04T16:37:18.466Z,9.40
2022-10-04T16:40:27.719Z,8.50
2022-10-04T16:43:31.449Z,6.60
2022-10-04T16:46:33.073Z,7.70
2022-10-04T16:49:29.905Z,6.90
2022-10-04T16:52:49.570Z,6.80
2022-10-04T16:55:53.357Z,8.90
2022-10-04T16:58:53.850Z,7.90
2022-10-04T17:02:07.885Z,7.20
2022-10-04T17:05:22.469Z,11.10
2022-10-04T17:08:25.038Z,8.30
2022-10-04T17:11:35.939Z,7.00
2022-10-04T17:15:09.344Z,6.30
2022-10-04T17:18:13.768Z,5.70
2022-10-04T17:21:12.591Z,8.50
2022-10-04T17:24:21.818Z,7.10
2022-10-04T17:27:27.460Z,6.70
2022-10-04T17:30:23.196Z,10.00
2022-10-04T17:33:31.649Z,7.90
2022-10-04T17:36:40.074Z,10.20
2022-10-04T17:39:45.891Z,13.90
2022-10-04T17:42:42.607Z,10.70
2022-10-04T17:46:05.470Z,16.90
2022-10-04T17:49:19.192Z,9.50
2022-10-04T17:52:48.125Z,10.00
2022-10-04T17:55:51.972Z,10.70
2022-10-04T17:58:48.636Z,10.50
2022-10-04T18:01:43.934Z,16.90
2022-10-04T18:04:40.612Z,12.20
2022-10-04T18:07:35.410Z,11.80
2022-10-04T18:10:30.220Z,9.10
2022-10-04T18:13:27.256Z,12.50
2022-10-04T18:16:25.052Z,11.10
2022-10-04T18:19:36.094Z,12.40
2022-10-04T18:22:29.257Z,12.00
2022-10-04T18:25:22.625Z,9.80
2022-10-04T18:28:21.735Z,13.30
2022-10-04T18:31:24.801Z,12.50
2022-10-04T18:34:32.151Z,12.10
2022-10-04T18:37:29.772Z,9.40
2022-10-04T18:40:22.743Z,8.90
2022-10-04T18:43:29.861Z,7.20
2022-10-04T18:46:23.114Z,8.60
2022-10-04T18:49:21.281Z,6.30
2022-10-04T18:52:24.282Z,7.10
2022-10-04T18:55:33.154Z,6.60
2022-10-04T18:58:52.823Z,7.10
2022-10-04T19:02:04.237Z,6.40
2022-10-04T19:05:03.263Z,6.40
2022-10-04T19:08:03.255Z,6.90
2022-10-04T19:10:59.374Z,6.30
2022-10-04T19:13:58.116Z,5.30
2022-10-04T19:16:55.747Z,7.90
2022-10-04T19:19:53.935Z,6.00
2022-10-04T19:22:54.579Z,5.50
2022-10-04T19:26:19.081Z,7.70
2022-10-04T19:29:05.872Z,6.90
2022-10-04T19:32:02.268Z,8.00
2022-10-04T19:35:03.063Z,8.80
2022-10-04T19:38:03.160Z,7.70
2022-10-04T19:41:02.396Z,5.50
2022-10-04T19:44:00.380Z,8.30
2022-10-04T19:46:58.334Z,8.80
2022-10-04T19:49:56.806Z,10.50
2022-10-04T19:52:54.493Z,7.40
2022-10-04T19:55:50.478Z,7.50
2022-10-04T19:58:45.071Z,7.00
2022-10-04T20:01:35.269Z,7.10
2022-10-04T20:04:38.549Z,7.90
2022-10-04T20:07:29.441Z,6.30
2022-10-04T20:10:30.563Z,6.50
2022-10-04T20:13:26.056Z,6.60
2022-10-04T20:16:35.882Z,7.00
2022-10-04T20:19:40.145Z,6.80
2022-10-04T20:22:31.836Z,5.70
2022-10-04T20:25:51.651Z,8.40
2022-10-04T20:28:43.371Z,6.60
2022-10-04T20:31:56.464Z,7.60
2022-10-04T20:34:51.943Z,7.80
2022-10-04T20:38:31.313Z,6.40
2022-10-04T20:42:05.509Z,6.60
2022-10-04T20:45:04.068Z,8.10
2022-10-04T20:47:58.879Z,6.40
2022-10-04T20:50:50.722Z,6.40
2022-10-04T20:53:46.841Z,6.80
2022-10-04T20:56:37.410Z,5.80
2022-10-04T20:59:27.203Z,7.30
2022-10-04T21:02:18.968Z,6.70
2022-10-04T21:05:23.659Z,5.80
2022-10-04T21:08:22.333Z,6.80
2022-10-04T21:11:25.478Z,6.50
2022-10-04T21:14:26.639Z,5.80
2022-10-04T21:17:37.334Z,7.60
2022-10-04T21:20:49.504Z,6.10
2022-10-04T21:23:39.358Z,6.30
2022-10-04T21:26:29.051Z,6.40
2022-10-04T21:29:19.293Z,5.90
2022-10-04T21:32:09.674Z,5.30
2022-10-04T21:34:59.683Z,6.10
2022-10-04T21:37:51.285Z,7.20
2022-10-04T21:40:40.690Z,6.30
2022-10-04T21:43:31.003Z,5.90
2022-10-04T21:46:20.956Z,5.80
2022-10-04T21:49:11.121Z,5.20
2022-10-04T21:52:01.392Z,5.20
2022-10-04T21:54:52.331Z,9.10
2022-10-04T21:57:42.730Z,5.70
2022-10-04T22:00:32.702Z,10.10
2022-10-04T22:03:23.227Z,7.40
2022-10-04T22:06:13.332Z,7.30
2022-10-04T22:09:03.374Z,5.80
2022-10-04T22:11:53.827Z,7.10
2022-10-04T22:14:44.610Z,6.00
2022-10-04T22:17:34.788Z,6.50
2022-10-04T22:20:25.054Z,8.10
2022-10-04T22:23:20.128Z,6.90
2022-10-04T22:26:15.812Z,7.00
2022-10-04T22:29:13.544Z,7.20
2022-10-04T22:32:03.555Z,8.40
2022-10-04T22:34:59.450Z,6.10
2022-10-04T22:37:50.357Z,6.00
2022-10-04T22:40:40.621Z,6.50
2022-10-04T22:43:31.015Z,6.10
2022-10-04T22:46:23.611Z,8.20
2022-10-04T22:49:16.930Z,5.40
2022-10-04T22:52:15.333Z,5.60
2022-10-04T22:55:07.542Z,4.80
2022-10-04T22:57:58.167Z,7.40
2022-10-04T23:00:48.106Z,5.40
2022-10-04T23:03:38.353Z,7.00
2022-10-04T23:06:28.434Z,6.40
2022-10-04T23:09:18.208Z,5.80
2022-10-04T23:12:11.253Z,5.80
2022-10-04T23:15:02.450Z,5.80
2022-10-04T23:17:56.425Z,6.20
2022-10-04T23:20:49.785Z,5.30
2022-10-04T23:23:39.494Z,6.50
2022-10-04T23:26:37.429Z,5.50
2022-10-04T23:29:31.408Z,6.80
2022-10-04T23:32:22.031Z,6.30
2022-10-04T23:35:21.615Z,6.10
2022-10-04T23:38:15.612Z,7.80
2022-10-04T23:41:07.293Z,8.30
2022-10-04T23:43:57.248Z,5.70
2022-10-04T23:46:47.812Z,7.90
2022-10-04T23:49:38.335Z,6.40
2022-10-04T23:52:34.782Z,7.00
2022-10-04T23:55:28.069Z,5.50
2022-10-04T23:58:21.421Z,7.10
